createdAt,value
2022-09-09T00:02:24.872Z,21.51
2022-09-09T00:04:59.321Z,21.48
2022-09-09T00:07:29.865Z,21.53
2022-09-09T00:10:02.830Z,21.50
2022-09-09T00:12:36.466Z,21.46
2022-09-09T00:15:07.047Z,21.46
2022-09-09T00:17:37.413Z,21.47
2022-09-09T00:20:08.093Z,21.44
2022-09-09T00:22:36.257Z,21.42
2022-09-09T00:25:12.434Z,21.40
2022-09-09T00:27:42.889Z,21.38
2022-09-09T00:30:17.260Z,21.32
2022-09-09T00:32:45.233Z,21.28
2022-09-09T00:35:19.058Z,21.22
2022-09-09T00:37:47.126Z,21.15
2022-09-09T00:40:24.133Z,21.14
2022-09-09T00:42:54.169Z,21.08
2022-09-09T00:45:35.240Z,21.06
2022-09-09T00:48:03.621Z,21.00
2022-09-09T00:50:47.564Z,20.96
2022-09-09T00:53:22.658Z,20.95
2022-09-09T00:55:55.960Z,20.91
2022-09-09T00:58:23.845Z,20.89
2022-09-09T01:00:54.047Z,20.86
2022-09-09T01:03:29.609Z,20.82
2022-09-09T01:06:04.010Z,20.81
2022-09-09T01:08:41.684Z,20.78
2022-09-09T01:11:13.116Z,20.72
2022-09-09T01:13:41.141Z,20.76
2022-09-09T01:16:10.723Z,20.71
2022-09-09T01:18:40.914Z,20.73
2022-09-09T01:21:11.916Z,20.68
2022-09-09T01:24:02.020Z,20.65
2022-09-09T01:26:32.438Z,20.58
2022-09-09T01:29:00.401Z,20.53
2022-09-09T01:31:29.826Z,20.52
2022-09-09T01:33:57.712Z,20.51
2022-09-09T01:36:28.963Z,20.48
2022-09-09T01:39:00.161Z,20.55
2022-09-09T01:41:28.097Z,20.57
2022-09-09T01:43:57.449Z,20.57
2022-09-09T01:46:25.420Z,20.57
2022-09-09T01:48:53.822Z,20.56
2022-09-09T01:51:21.776Z,20.50
2022-09-09T01:53:49.665Z,20.52
2022-09-09T01:56:23.636Z,20.50
2022-09-09T01:59:02.565Z,20.51
2022-09-09T02:01:38.552Z,20.47
2022-09-09T02:04:10.008Z,20.43
2022-09-09T02:06:38.642Z,20.41
2022-09-09T02:09:07.248Z,20.39
2022-09-09T02:11:35.237Z,20.39
2022-09-09T02:14:06.768Z,20.38
2022-09-09T02:16:36.792Z,20.39
2022-09-09T02:19:09.145Z,20.43
2022-09-09T02:21:37.961Z,20.54
2022-09-09T02:24:09.078Z,20.56
2022-09-09T02:26:36.954Z,20.61
2022-09-09T02:29:07.425Z,20.65
2022-09-09T02:31:36.494Z,20.68
2022-09-09T02:34:04.453Z,20.72
2022-09-09T02:36:34.487Z,20.75
2022-09-09T02:39:02.412Z,20.77
2022-09-09T02:41:32.551Z,20.76
2022-09-09T02:44:00.668Z,20.76
2022-09-09T02:46:37.429Z,20.75
2022-09-09T02:49:07.401Z,20.74
2022-09-09T02:51:39.853Z,20.75
2022-09-09T02:54:14.456Z,20.74
2022-09-09T02:56:44.360Z,20.70
2022-09-09T02:59:12.633Z,20.76
2022-09-09T03:01:42.253Z,20.76
2022-09-09T03:04:10.265Z,20.78
2022-09-09T03:06:38.847Z,20.80
2022-09-09T03:09:06.833Z,20.75
2022-09-09T03:11:34.721Z,20.88
2022-09-09T03:14:02.760Z,20.93
2022-09-09T03:16:31.065Z,20.98
2022-09-09T03:19:00.381Z,21.02
2022-09-09T03:21:28.284Z,21.06
2022-09-09T03:23:56.507Z,21.09
2022-09-09T03:26:24.471Z,21.13
2022-09-09T03:28:52.844Z,21.15
2022-09-09T03:31:20.807Z,21.18
2022-09-09T03:33:48.902Z,21.16
2022-09-09T03:36:18.846Z,21.17
2022-09-09T03:38:46.774Z,21.17
2022-09-09T03:41:14.710Z,21.18
2022-09-09T03:43:42.912Z,21.10
2022-09-09T03:46:10.932Z,21.16
2022-09-09T03:48:38.828Z,21.17
2022-09-09T03:51:07.085Z,21.18
2022-09-09T03:53:37.799Z,21.17
2022-09-09T03:56:07.635Z,21.17
2022-09-09T03:58:35.794Z,21.15
2022-09-09T04:01:05.153Z,21.13
2022-09-09T04:03:33.482Z,21.09
2022-09-09T04:06:03.193Z,21.07
2022-09-09T04:08:32.441Z,21.04
2022-09-09T04:11:03.252Z,21.00
2022-09-09T04:13:31.685Z,21.00
2022-09-09T04:16:00.549Z,20.98
2022-09-09T04:18:29.146Z,20.98
2022-09-09T04:20:58.280Z,21.00
2022-09-09T04:23:26.377Z,21.03
2022-09-09T04:25:55.076Z,21.03
2022-09-09T04:28:25.334Z,21.04
2022-09-09T04:30:53.354Z,21.03
2022-09-09T04:33:21.363Z,21.01
2022-09-09T04:35:50.127Z,21.03
2022-09-09T04:38:18.334Z,20.99
2022-09-09T04:40:46.651Z,20.97
2022-09-09T04:43:15.394Z,20.98
2022-09-09T04:45:44.806Z,20.94
2022-09-09T04:48:14.951Z,20.99
2022-09-09T04:50:42.865Z,21.02
2022-09-09T04:53:10.855Z,21.05
2022-09-09T04:55:38.771Z,21.08
2022-09-09T04:58:07.542Z,21.10
2022-09-09T05:00:37.146Z,21.14
2022-09-09T05:03:06.704Z,21.16
2022-09-09T05:05:35.169Z,21.12
2022-09-09T05:08:06.660Z,21.03
2022-09-09T05:10:34.678Z,20.88
2022-09-09T05:13:02.621Z,20.72
2022-09-09T05:15:30.790Z,20.39
2022-09-09T05:18:00.280Z,19.98
2022-09-09T05:20:29.608Z,19.62
2022-09-09T05:22:57.725Z,19.44
2022-09-09T05:25:29.318Z,19.33
2022-09-09T05:27:57.491Z,19.26
2022-09-09T05:30:27.342Z,19.23
2022-09-09T05:32:58.117Z,19.16
2022-09-09T05:35:28.753Z,19.10
2022-09-09T05:38:01.126Z,19.05
2022-09-09T05:40:29.072Z,19.03
2022-09-09T05:42:56.942Z,19.01
2022-09-09T05:45:24.949Z,18.99
2022-09-09T05:47:55.004Z,18.97
2022-09-09T05:50:23.088Z,18.95
2022-09-09T05:52:51.029Z,18.95
2022-09-09T05:55:20.388Z,19.00
2022-09-09T05:57:52.857Z,18.99
2022-09-09T06:00:21.405Z,18.99
2022-09-09T06:02:53.459Z,18.99
2022-09-09T06:05:23.988Z,18.99
2022-09-09T06:07:54.587Z,19.03
2022-09-09T06:10:27.125Z,19.01
2022-09-09T06:12:55.693Z,19.11
2022-09-09T06:15:23.943Z,19.20
2022-09-09T06:17:56.639Z,19.27
2022-09-09T06:20:24.586Z,19.45
2022-09-09T06:22:52.440Z,19.54
2022-09-09T06:25:20.464Z,19.64
2022-09-09T06:27:52.201Z,19.73
2022-09-09T06:30:20.438Z,19.79
2022-09-09T06:32:48.615Z,19.91
2022-09-09T06:35:16.749Z,19.99
2022-09-09T06:37:47.245Z,20.01
2022-09-09T06:40:15.224Z,20.03
2022-09-09T06:42:43.259Z,20.04
2022-09-09T06:45:13.110Z,20.05
2022-09-09T06:47:41.659Z,19.99
2022-09-09T06:50:11.295Z,19.99
2022-09-09T06:52:39.473Z,19.98
2022-09-09T06:55:08.984Z,20.00
2022-09-09T06:57:37.842Z,20.01
2022-09-09T07:00:07.344Z,20.03
2022-09-09T07:02:40.177Z,20.05
2022-09-09T07:05:09.215Z,20.10
2022-09-09T07:07:37.701Z,20.14
2022-09-09T07:10:06.594Z,20.21
2022-09-09T07:12:34.495Z,20.25
2022-09-09T07:15:02.414Z,20.27
2022-09-09T07:17:31.149Z,20.25
2022-09-09T07:20:00.827Z,20.41
2022-09-09T07:22:29.959Z,20.43
2022-09-09T07:24:58.008Z,20.47
2022-09-09T07:27:25.973Z,20.50
2022-09-09T07:29:57.686Z,20.53
2022-09-09T07:32:26.548Z,20.58
2022-09-09T07:34:54.540Z,20.63
2022-09-09T07:37:23.930Z,20.72
2022-09-09T07:39:52.218Z,20.78
2022-09-09T07:42:20.474Z,20.84
2022-09-09T07:44:48.497Z,20.91
2022-09-09T07:47:16.498Z,20.96
2022-09-09T07:49:44.527Z,20.99
2022-09-09T07:52:14.838Z,21.02
2022-09-09T07:54:46.782Z,21.01
2022-09-09T07:57:16.361Z,20.99
2022-09-09T07:59:45.580Z,20.99
2022-09-09T08:02:13.528Z,21.02
2022-09-09T08:04:41.517Z,21.05
2022-09-09T08:07:09.440Z,21.13
2022-09-09T08:09:37.385Z,21.15
2022-09-09T08:12:08.035Z,21.26
2022-09-09T08:14:35.992Z,21.32
2022-09-09T08:17:03.962Z,21.39
2022-09-09T08:19:34.188Z,21.45
2022-09-09T08:22:02.851Z,21.50
2022-09-09T08:24:30.839Z,21.52
2022-09-09T08:26:58.850Z,21.54
2022-09-09T08:29:29.367Z,21.57
2022-09-09T08:31:58.481Z,21.63
2022-09-09T08:34:27.950Z,21.67
2022-09-09T08:36:56.176Z,21.77
2022-09-09T08:39:24.352Z,21.88
2022-09-09T08:42:02.392Z,21.99
2022-09-09T08:44:38.969Z,22.07
2022-09-09T08:47:10.405Z,22.14
2022-09-09T08:49:47.665Z,22.16
2022-09-09T08:52:19.046Z,22.28
2022-09-09T08:54:52.551Z,22.33
2022-09-09T08:57:22.181Z,22.27
2022-09-09T08:59:52.003Z,22.38
2022-09-09T09:02:21.946Z,22.43
2022-09-09T09:04:57.075Z,22.48
2022-09-09T09:07:32.936Z,22.47
2022-09-09T09:10:09.093Z,22.43
2022-09-09T09:12:44.210Z,22.51
2022-09-09T09:15:18.591Z,22.55
2022-09-09T09:17:46.554Z,22.61
2022-09-09T09:20:16.089Z,22.69
2022-09-09T09:22:49.463Z,22.70
2022-09-09T09:25:19.302Z,22.73
2022-09-09T09:27:51.782Z,22.70
2022-09-09T09:30:27.140Z,22.69
2022-09-09T09:32:58.017Z,22.62
2022-09-09T09:35:26.110Z,22.49
2022-09-09T09:40:51.190Z,22.09
2022-09-09T09:43:22.154Z,21.99
2022-09-09T09:46:13.993Z,21.96
2022-09-09T09:48:39.428Z,22.07
2022-09-09T09:51:10.713Z,22.16
2022-09-09T09:53:39.462Z,22.25
2022-09-09T09:56:08.712Z,22.31
2022-09-09T09:58:51.926Z,22.50
2022-09-09T10:01:26.128Z,22.55
2022-09-09T10:03:54.333Z,22.67
2022-09-09T10:06:32.272Z,22.74
2022-09-09T10:09:00.275Z,22.81
2022-09-09T10:11:43.650Z,23.04
2022-09-09T10:14:18.976Z,23.19
2022-09-09T10:16:58.751Z,23.24
2022-09-09T10:19:32.303Z,23.39
2022-09-09T10:22:18.543Z,23.58
2022-09-09T10:25:03.210Z,23.74
2022-09-09T10:27:34.628Z,23.79
2022-09-09T10:30:14.468Z,23.91
2022-09-09T10:32:52.011Z,24.02
2022-09-09T10:35:37.938Z,24.17
2022-09-09T10:38:13.287Z,24.17
2022-09-09T10:40:45.505Z,24.15
2022-09-09T10:43:19.507Z,24.18
2022-09-09T10:45:53.059Z,24.21
2022-09-09T10:48:33.503Z,24.26
2022-09-09T10:51:09.294Z,24.34
2022-09-09T10:53:41.464Z,24.40
2022-09-09T10:56:10.594Z,24.38
2022-09-09T10:58:42.407Z,24.37
2022-09-09T11:01:15.216Z,24.30
2022-09-09T11:03:44.789Z,24.33
2022-09-09T11:06:15.491Z,24.41
2022-09-09T11:08:43.445Z,24.37
2022-09-09T11:11:14.621Z,24.29
2022-09-09T11:13:45.384Z,24.25
2022-09-09T11:16:20.243Z,24.25
2022-09-09T11:18:50.328Z,24.34
2022-09-09T11:21:21.266Z,24.45
2022-09-09T11:23:51.738Z,24.54
2022-09-09T11:26:21.361Z,24.58
2022-09-09T11:29:02.823Z,24.79
2022-09-09T11:31:45.396Z,24.79
2022-09-09T11:34:24.385Z,24.63
2022-09-09T11:36:58.550Z,24.59
2022-09-09T11:39:41.792Z,24.82
2022-09-09T11:42:10.356Z,24.74
2022-09-09T11:47:19.048Z,25.00
2022-09-09T11:49:49.579Z,24.85
2022-09-09T11:52:24.030Z,24.82
2022-09-09T11:54:52.005Z,24.83
2022-09-09T11:57:26.929Z,25.09
2022-09-09T11:59:55.592Z,25.38
2022-09-09T12:02:25.569Z,25.62
2022-09-09T12:05:00.182Z,25.66
2022-09-09T12:07:34.039Z,25.45
2022-09-09T12:10:03.423Z,25.28
2022-09-09T12:12:33.130Z,25.05
2022-09-09T12:15:03.212Z,24.85
2022-09-09T12:17:32.418Z,24.65
2022-09-09T12:20:08.576Z,24.49
2022-09-09T12:22:40.466Z,24.43
2022-09-09T12:25:15.258Z,24.82
2022-09-09T12:27:44.861Z,24.96
2022-09-09T12:30:14.408Z,25.29
2022-09-09T12:32:42.423Z,25.48
2022-09-09T12:35:14.044Z,25.26
2022-09-09T12:37:42.585Z,24.78
2022-09-09T12:40:23.921Z,24.36
2022-09-09T12:42:52.104Z,23.98
2022-09-09T12:45:21.418Z,23.93
2022-09-09T12:47:50.690Z,23.91
2022-09-09T12:50:21.065Z,24.03
2022-09-09T12:52:49.327Z,24.86
2022-09-09T12:55:19.882Z,25.41
2022-09-09T12:57:48.102Z,25.66
2022-09-09T13:00:18.492Z,25.68
2022-09-09T13:02:51.353Z,25.22
2022-09-09T13:05:22.629Z,24.45
2022-09-09T13:07:50.553Z,23.83
2022-09-09T13:10:36.287Z,23.23
2022-09-09T13:13:15.534Z,22.63
2022-09-09T13:15:50.928Z,22.19
2022-09-09T13:18:19.934Z,21.91
2022-09-09T13:20:50.187Z,21.77
2022-09-09T13:23:18.198Z,21.75
2022-09-09T13:25:55.444Z,21.83
2022-09-09T13:28:24.273Z,21.97
2022-09-09T13:31:03.317Z,22.31
2022-09-09T13:33:35.740Z,22.59
2022-09-09T13:36:06.274Z,22.71
2022-09-09T13:38:35.738Z,22.73
2022-09-09T13:41:05.475Z,22.54
2022-09-09T13:43:35.767Z,22.56
2022-09-09T13:46:04.601Z,22.34
2022-09-09T13:48:32.855Z,22.00
2022-09-09T13:51:09.721Z,21.81
2022-09-09T13:53:37.712Z,21.73
2022-09-09T13:56:05.790Z,21.64
2022-09-09T13:58:34.161Z,21.55
2022-09-09T14:01:02.209Z,21.50
2022-09-09T14:03:30.281Z,21.65
2022-09-09T14:05:58.872Z,21.77
2022-09-09T14:08:29.387Z,21.82
2022-09-09T14:10:59.379Z,21.88
2022-09-09T14:13:27.510Z,21.80
2022-09-09T14:15:55.460Z,21.91
2022-09-09T14:18:24.341Z,21.80
2022-09-09T14:20:52.374Z,21.67
2022-09-09T14:23:20.662Z,21.54
2022-09-09T14:25:50.102Z,21.48
2022-09-09T14:28:20.480Z,21.33
2022-09-09T14:30:53.981Z,21.25
2022-09-09T14:33:22.241Z,21.18
2022-09-09T14:35:50.150Z,21.17
2022-09-09T14:38:19.203Z,21.26
2022-09-09T14:40:47.835Z,21.35
2022-09-09T14:43:17.375Z,21.45
2022-09-09T14:45:45.415Z,21.50
2022-09-09T14:48:14.122Z,21.58
2022-09-09T14:50:42.070Z,21.64
2022-09-09T14:53:11.021Z,21.68
2022-09-09T14:55:39.054Z,21.75
2022-09-09T14:58:07.533Z,21.89
2022-09-09T15:00:39.158Z,22.06
2022-09-09T15:03:07.295Z,22.16
2022-09-09T15:05:35.674Z,22.20
2022-09-09T15:08:03.991Z,22.19
2022-09-09T15:10:32.533Z,22.14
2022-09-09T15:13:00.438Z,22.09
2022-09-09T15:15:28.938Z,22.10
2022-09-09T15:17:58.293Z,22.20
2022-09-09T15:20:26.263Z,22.33
2022-09-09T15:22:54.129Z,22.39
2022-09-09T15:25:22.978Z,22.65
2022-09-09T15:27:50.952Z,22.71
2022-09-09T15:30:19.151Z,22.84
2022-09-09T15:32:48.829Z,23.00
2022-09-09T15:35:18.678Z,23.12
2022-09-09T15:37:47.141Z,23.14
2022-09-09T15:40:15.225Z,23.17
2022-09-09T15:42:43.877Z,23.22
2022-09-09T15:45:13.586Z,23.27
2022-09-09T15:47:41.600Z,23.23
2022-09-09T15:50:09.725Z,23.23
2022-09-09T15:52:43.328Z,23.27
2022-09-09T15:55:11.410Z,23.33
2022-09-09T15:57:39.319Z,23.33
2022-09-09T16:00:09.902Z,23.41
2022-09-09T16:02:38.107Z,23.39
2022-09-09T16:05:07.095Z,23.42
2022-09-09T16:07:36.908Z,23.39
2022-09-09T16:10:07.057Z,23.37
2022-09-09T16:12:35.009Z,23.43
2022-09-09T16:15:03.410Z,23.52
2022-09-09T16:17:31.353Z,23.59
2022-09-09T16:19:59.445Z,23.62
2022-09-09T16:22:27.405Z,23.60
2022-09-09T16:24:55.479Z,23.68
2022-09-09T16:27:24.969Z,23.66
2022-09-09T16:29:53.022Z,23.79
2022-09-09T16:32:21.220Z,23.83
2022-09-09T16:34:52.337Z,23.94
2022-09-09T16:37:20.444Z,24.21
2022-09-09T16:39:48.435Z,24.93
2022-09-09T16:42:17.904Z,25.39
2022-09-09T16:44:47.404Z,25.69
2022-09-09T16:47:15.326Z,25.79
2022-09-09T16:49:43.253Z,25.71
2022-09-09T16:52:11.431Z,25.66
2022-09-09T16:54:39.306Z,25.33
2022-09-09T16:57:07.760Z,24.91
2022-09-09T16:59:37.955Z,24.56
2022-09-09T17:02:08.422Z,24.28
2022-09-09T17:04:36.561Z,24.07
2022-09-09T17:07:04.466Z,23.90
2022-09-09T17:09:32.538Z,23.77
2022-09-09T17:12:00.986Z,23.65
2022-09-09T17:14:32.184Z,23.51
2022-09-09T17:17:14.023Z,23.41
2022-09-09T17:19:51.496Z,23.33
2022-09-09T17:22:19.449Z,23.23
2022-09-09T17:24:47.614Z,23.10
2022-09-09T17:27:15.540Z,23.02
2022-09-09T17:29:43.861Z,22.88
2022-09-09T17:32:11.766Z,22.81
2022-09-09T17:34:39.995Z,22.73
2022-09-09T17:37:09.363Z,22.67
2022-09-09T17:39:37.742Z,22.61
2022-09-09T17:42:05.855Z,22.58
2022-09-09T17:44:34.312Z,22.55
2022-09-09T17:47:04.737Z,22.56
2022-09-09T17:49:32.625Z,22.56
2022-09-09T17:52:00.575Z,22.54
2022-09-09T17:54:30.001Z,22.50
2022-09-09T17:56:58.653Z,22.43
2022-09-09T17:59:26.558Z,22.40
2022-09-09T18:01:54.551Z,22.34
2022-09-09T18:04:22.688Z,22.28
2022-09-09T18:06:51.533Z,22.27
2022-09-09T18:09:20.739Z,22.23
2022-09-09T18:11:51.053Z,22.21
2022-09-09T18:14:23.021Z,22.16
2022-09-09T18:16:51.189Z,22.12
2022-09-09T18:19:20.724Z,22.10
2022-09-09T18:21:49.219Z,22.06
2022-09-09T18:24:18.029Z,22.01
2022-09-09T18:26:48.158Z,21.97
2022-09-09T18:29:19.979Z,21.82
2022-09-09T18:31:48.310Z,21.84
2022-09-09T18:34:17.123Z,21.77
2022-09-09T18:36:45.947Z,21.72
2022-09-09T18:39:14.257Z,21.66
2022-09-09T18:41:42.931Z,21.56
2022-09-09T18:44:13.638Z,21.55
2022-09-09T18:46:43.004Z,21.49
2022-09-09T18:49:11.586Z,21.44
2022-09-09T18:51:41.134Z,21.39
2022-09-09T18:54:10.621Z,21.35
2022-09-09T18:56:38.743Z,21.29
2022-09-09T18:59:07.503Z,21.26
2022-09-09T19:01:36.505Z,21.22
2022-09-09T19:04:06.267Z,21.21
2022-09-09T19:06:35.253Z,21.20
2022-09-09T19:09:04.975Z,21.18
2022-09-09T19:11:33.954Z,21.17
2022-09-09T19:14:03.311Z,21.14
2022-09-09T19:16:31.945Z,21.12
2022-09-09T19:19:01.141Z,21.11
2022-09-09T19:21:31.358Z,21.12
2022-09-09T19:24:00.969Z,21.11
2022-09-09T19:26:29.725Z,21.10
2022-09-09T19:28:59.133Z,21.08
2022-09-09T19:31:28.064Z,21.07
2022-09-09T19:33:56.702Z,21.07
2022-09-09T19:36:25.045Z,21.06
2022-09-09T19:38:55.902Z,21.05
2022-09-09T19:41:25.553Z,21.02
2022-09-09T19:43:54.962Z,21.00
2022-09-09T19:46:22.890Z,21.01
2022-09-09T19:48:50.838Z,21.00
2022-09-09T19:51:19.706Z,20.97
2022-09-09T19:53:48.779Z,20.95
2022-09-09T19:56:18.770Z,20.94
2022-09-09T19:58:47.369Z,20.92
2022-09-09T20:01:15.873Z,20.91
2022-09-09T20:03:44.785Z,20.88
2022-09-09T20:06:13.967Z,20.88
2022-09-09T20:08:41.961Z,20.88
2022-09-09T20:11:09.865Z,20.87
2022-09-09T20:13:39.776Z,20.86
2022-09-09T20:16:08.756Z,20.84
2022-09-09T20:18:38.354Z,20.85
2022-09-09T20:21:07.425Z,20.84
2022-09-09T20:23:35.431Z,20.83
2022-09-09T20:26:05.207Z,20.80
2022-09-09T20:28:37.597Z,20.85
2022-09-09T20:31:07.808Z,20.83
2022-09-09T20:33:35.840Z,20.82
2022-09-09T20:36:11.567Z,20.82
2022-09-09T20:38:42.609Z,20.82
2022-09-09T20:41:14.365Z,20.80
2022-09-09T20:43:48.251Z,20.77
2022-09-09T20:46:18.998Z,20.77
2022-09-09T20:48:47.081Z,20.74
2022-09-09T20:51:16.320Z,20.76
2022-09-09T20:53:44.169Z,20.75
2022-09-09T20:56:12.276Z,20.75
2022-09-09T20:58:40.366Z,20.73
2022-09-09T21:01:09.306Z,20.69
2022-09-09T21:03:38.620Z,20.72
2022-09-09T21:06:07.105Z,20.71
2022-09-09T21:08:38.701Z,20.69
2022-09-09T21:11:06.939Z,20.64
2022-09-09T21:13:36.310Z,20.66
2022-09-09T21:16:04.730Z,20.62
2022-09-09T21:18:32.708Z,20.62
2022-09-09T21:21:02.489Z,20.61
2022-09-09T21:23:31.390Z,20.62
2022-09-09T21:25:59.300Z,20.58
2022-09-09T21:28:28.493Z,20.56
2022-09-09T21:30:56.536Z,20.53
2022-09-09T21:33:28.048Z,20.48
2022-09-09T21:36:02.389Z,20.50
2022-09-09T21:38:32.053Z,20.48
2022-09-09T21:41:03.809Z,20.49
2022-09-09T21:43:31.819Z,20.49
2022-09-09T21:46:02.546Z,20.47
2022-09-09T21:48:31.608Z,20.44
2022-09-09T21:51:03.591Z,20.44
2022-09-09T21:53:33.024Z,20.45
2022-09-09T21:56:04.856Z,20.45
2022-09-09T21:58:32.849Z,20.45
2022-09-09T22:01:00.765Z,20.43
2022-09-09T22:03:28.705Z,20.41
2022-09-09T22:05:56.654Z,20.38
2022-09-09T22:08:24.537Z,20.34
2022-09-09T22:10:53.833Z,20.33
2022-09-09T22:13:22.312Z,20.29
2022-09-09T22:15:51.055Z,20.29
2022-09-09T22:18:19.342Z,20.27
2022-09-09T22:20:48.044Z,20.27
2022-09-09T22:23:16.521Z,20.24
2022-09-09T22:25:44.754Z,20.22
2022-09-09T22:28:14.034Z,20.20
2022-09-09T22:30:41.944Z,20.18
2022-09-09T22:33:09.908Z,20.17
2022-09-09T22:35:42.362Z,20.17
2022-09-09T22:38:11.215Z,20.15
2022-09-09T22:40:39.183Z,20.15
2022-09-09T22:43:08.041Z,20.14
2022-09-09T22:45:37.330Z,20.12
2022-09-09T22:48:06.006Z,20.11
2022-09-09T22:50:37.913Z,20.09
2022-09-09T22:53:13.245Z,20.06
2022-09-09T22:55:41.164Z,20.04
2022-09-09T22:58:09.037Z,20.00
2022-09-09T23:00:40.158Z,19.95
2022-09-09T23:03:08.311Z,19.91
2022-09-09T23:05:37.293Z,19.86
2022-09-09T23:08:05.240Z,19.83
2022-09-09T23:10:33.812Z,19.81
2022-09-09T23:13:01.726Z,19.77
2022-09-09T23:15:31.351Z,19.72
2022-09-09T23:18:00.720Z,19.69
2022-09-09T23:20:28.939Z,19.67
2022-09-09T23:22:57.079Z,19.65
2022-09-09T23:25:25.258Z,19.63
2022-09-09T23:27:53.457Z,19.64
2022-09-09T23:30:21.572Z,19.63
2022-09-09T23:32:50.054Z,19.61
2022-09-09T23:35:19.446Z,19.57
2022-09-09T23:37:48.050Z,19.51
2022-09-09T23:40:16.126Z,19.47
2022-09-09T23:42:47.574Z,19.42
2022-09-09T23:45:15.900Z,19.41
2022-09-09T23:47:43.758Z,19.45
2022-09-09T23:50:11.664Z,19.46
2022-09-09T23:52:41.725Z,19.51
2022-09-09T23:55:09.774Z,19.55
2022-09-09T23:57:37.700Z,19.57
